createdAt,value
2018-04-12T13:37:22.137Z,21.51
2018-04-12T13:38:21.710Z,21.48
2018-04-12T13:39:21.689Z,21.46
2018-04-12T13:40:21.676Z,21.42
2018-04-12T13:41:21.674Z,21.50
2018-04-12T13:42:21.666Z,21.61
2018-04-12T13:43:21.686Z,21.56
2018-04-12T13:44:21.667Z,21.61
2018-04-12T13:45:21.640Z,21.59
2018-04-12T13:46:21.627Z,21.50
2018-04-12T13:47:21.633Z,21.50
2018-04-12T13:48:21.621Z,21.44
2018-04-12T13:49:21.633Z,21.56
2018-04-12T13:50:21.611Z,21.50
2018-04-12T13:51:21.621Z,21.44
2018-04-12T13:52:21.601Z,21.59
2018-04-12T13:53:21.597Z,21.48
2018-04-12T13:54:21.601Z,21.48
2018-04-12T13:55:21.585Z,21.56
2018-04-12T13:56:21.598Z,21.42
2018-04-12T13:57:21.581Z,21.30
2018-04-12T13:58:21.578Z,21.34
2018-04-12T13:59:21.548Z,21.39
2018-04-12T14:00:21.572Z,21.42
2018-04-12T14:01:21.538Z,21.51
2018-04-12T14:02:21.549Z,21.48
2018-04-12T14:03:21.525Z,21.51
2018-04-12T14:04:21.526Z,21.36
2018-04-12T14:05:21.520Z,21.41
2018-04-12T14:06:21.519Z,21.45
2018-04-12T14:07:21.513Z,21.41
2018-04-12T14:08:21.519Z,21.42
2018-04-12T14:09:21.488Z,21.39
2018-04-12T14:10:21.519Z,21.32
2018-04-12T14:11:21.488Z,21.36
2018-04-12T14:12:21.478Z,21.51
2018-04-12T14:13:21.471Z,21.64
2018-04-12T14:14:21.520Z,21.72
2018-04-12T14:15:21.462Z,21.79
2018-04-12T14:16:21.462Z,21.82
2018-04-12T14:17:21.511Z,21.95
2018-04-12T14:18:21.507Z,21.98
2018-04-12T14:19:21.459Z,22.09
2018-04-12T14:20:21.432Z,22.23
2018-04-12T14:21:21.429Z,22.28
2018-04-12T14:22:21.425Z,22.27
2018-04-12T14:23:21.484Z,22.09
2018-04-12T14:24:21.460Z,21.97
2018-04-12T14:25:21.406Z,21.92
2018-04-12T14:26:21.444Z,21.91
2018-04-12T14:27:21.435Z,21.90
2018-04-12T14:28:21.393Z,21.81
2018-04-12T14:29:21.450Z,21.88
2018-04-12T14:30:21.386Z,21.64
2018-04-12T14:31:21.386Z,21.74
2018-04-12T14:32:21.372Z,21.72
2018-04-12T14:33:21.385Z,21.71
2018-04-12T14:34:21.466Z,21.74
2018-04-12T14:35:21.357Z,21.67
2018-04-12T14:36:21.363Z,21.67
2018-04-12T14:37:21.353Z,21.59
2018-04-12T14:38:21.348Z,21.53
2018-04-12T14:39:21.349Z,21.54
2018-04-12T14:40:21.336Z,21.53
2018-04-12T14:41:21.334Z,21.54
2018-04-12T14:42:21.324Z,21.50
2018-04-12T14:43:21.318Z,21.50
2018-04-12T14:44:21.337Z,21.39
2018-04-12T14:45:21.323Z,21.38
2018-04-12T14:46:21.300Z,21.38
2018-04-12T14:47:21.350Z,21.30
2018-04-12T14:48:21.330Z,21.32
2018-04-12T14:49:21.285Z,21.34
2018-04-12T14:50:21.308Z,21.35
2018-04-12T14:51:21.273Z,21.32
2018-04-12T14:52:21.260Z,21.51
2018-04-12T14:53:21.283Z,21.45
2018-04-12T14:54:21.254Z,21.51
2018-04-12T14:55:21.247Z,21.39
2018-04-12T14:56:21.257Z,21.54
2018-04-12T14:57:21.238Z,21.54
2018-04-12T14:58:21.232Z,21.63
2018-04-12T14:59:21.222Z,21.66
2018-04-12T15:00:21.222Z,21.78
2018-04-12T15:01:21.212Z,21.91
2018-04-12T15:02:21.203Z,22.06
2018-04-12T15:03:21.205Z,22.07
2018-04-12T15:04:21.200Z,22.10
2018-04-12T15:05:21.208Z,22.25
2018-04-12T15:06:21.207Z,22.20
2018-04-12T15:07:21.180Z,22.04
2018-04-12T15:08:21.170Z,22.04
2018-04-12T15:09:21.171Z,22.09
2018-04-12T15:10:21.192Z,22.28
2018-04-12T15:11:21.158Z,22.34
2018-04-12T15:12:21.174Z,22.34
2018-04-12T15:13:21.157Z,22.32
2018-04-12T15:14:21.141Z,22.25
2018-04-12T15:15:21.135Z,22.07
2018-04-12T15:16:21.132Z,21.99
2018-04-12T15:17:21.131Z,21.79
2018-04-12T15:18:21.121Z,21.72
2018-04-12T15:19:21.109Z,21.59
2018-04-12T15:20:21.109Z,21.54
2018-04-12T15:21:21.131Z,21.61
2018-04-12T15:22:21.122Z,21.61
2018-04-12T15:23:21.103Z,21.71
2018-04-12T15:24:21.093Z,21.64
2018-04-12T15:25:21.124Z,21.60
2018-04-12T15:26:21.083Z,21.59
2018-04-12T15:27:21.067Z,21.74
2018-04-12T15:28:21.063Z,21.63
2018-04-12T15:29:21.064Z,21.61
2018-04-12T15:30:21.057Z,21.60
2018-04-12T15:31:21.112Z,21.69
2018-04-12T15:32:21.047Z,21.63
2018-04-12T15:33:21.045Z,21.64
2018-04-12T15:34:21.035Z,21.63
2018-04-12T15:35:21.029Z,21.64
2018-04-12T15:36:21.025Z,21.56
2018-04-12T15:37:21.013Z,21.48
2018-04-12T15:38:21.032Z,21.46
2018-04-12T15:39:21.005Z,21.48
2018-04-12T15:40:21.000Z,21.46
2018-04-12T15:41:20.996Z,21.51
2018-04-12T15:42:20.987Z,21.48
2018-04-12T15:43:20.975Z,21.42
2018-04-12T15:44:20.972Z,21.44
2018-04-12T15:45:20.965Z,21.41
2018-04-12T15:46:20.956Z,21.45
2018-04-12T15:47:20.951Z,21.51
2018-04-12T15:48:20.952Z,21.44
2018-04-12T15:49:20.942Z,21.29
2018-04-12T15:50:20.936Z,21.32
2018-04-12T15:51:20.929Z,21.27
2018-04-12T15:52:20.945Z,21.23
2018-04-12T15:53:20.952Z,21.32
2018-04-12T15:54:20.910Z,21.30
2018-04-12T15:55:20.904Z,21.27
2018-04-12T15:56:20.900Z,21.21
2018-04-12T15:57:20.890Z,21.30
2018-04-12T15:58:20.894Z,21.32
2018-04-12T15:59:20.886Z,21.34
2018-04-12T16:00:20.871Z,21.41
2018-04-12T16:01:20.884Z,21.38
2018-04-12T16:02:20.858Z,21.34
2018-04-12T16:03:20.853Z,21.34
2018-04-12T16:04:20.852Z,21.39
2018-04-12T16:05:20.843Z,21.39
2018-04-12T16:06:20.839Z,21.48
2018-04-12T16:07:20.840Z,21.46
2018-04-12T16:08:20.823Z,21.50
2018-04-12T16:09:20.814Z,21.61
2018-04-12T16:10:20.807Z,21.66
2018-04-12T16:11:20.803Z,21.63
2018-04-12T16:12:20.823Z,21.67
2018-04-12T16:13:20.794Z,21.69
2018-04-12T16:14:20.788Z,21.75
2018-04-12T16:15:20.775Z,21.60
2018-04-12T16:16:20.801Z,21.53
2018-04-12T16:17:20.769Z,21.41
2018-04-12T16:18:20.763Z,21.36
2018-04-12T16:19:20.778Z,21.29
2018-04-12T16:20:20.746Z,21.39
2018-04-12T16:21:20.744Z,21.24
2018-04-12T16:22:20.738Z,21.21
2018-04-12T16:23:20.734Z,21.24
2018-04-12T16:24:20.731Z,21.29
2018-04-12T16:25:20.711Z,21.20
2018-04-12T16:26:20.737Z,21.19
2018-04-12T16:27:20.703Z,21.17
2018-04-12T16:28:20.692Z,21.29
2018-04-12T16:29:20.683Z,21.23
2018-04-12T16:30:20.686Z,21.11
2018-04-12T16:31:20.677Z,21.16
2018-04-12T16:32:20.669Z,21.16
2018-04-12T16:33:20.660Z,21.11
2018-04-12T16:34:20.651Z,21.05
2018-04-12T16:35:20.647Z,21.01
2018-04-12T16:36:20.705Z,20.99
2018-04-12T16:37:20.647Z,21.01
2018-04-12T16:38:20.635Z,20.91
2018-04-12T16:39:20.618Z,20.99
2018-04-12T16:40:20.612Z,21.01
2018-04-12T16:41:20.606Z,20.99
2018-04-12T16:42:20.603Z,20.90
2018-04-12T16:43:20.593Z,20.98
2018-04-12T16:44:20.612Z,21.01
2018-04-12T16:45:20.584Z,21.08
2018-04-12T16:46:20.671Z,20.95
2018-04-12T16:47:20.564Z,20.91
2018-04-12T16:48:20.573Z,20.79
2018-04-12T16:49:20.596Z,20.77
2018-04-12T16:50:20.545Z,20.77
2018-04-12T16:51:20.536Z,20.74
2018-04-12T16:52:20.539Z,20.65
2018-04-12T16:53:20.529Z,20.53
2018-04-12T16:54:20.521Z,20.50
2018-04-12T16:55:20.520Z,20.53
2018-04-12T16:56:20.510Z,20.43
2018-04-12T16:57:20.514Z,20.42
2018-04-12T16:58:20.489Z,20.42
2018-04-12T16:59:20.479Z,20.43
2018-04-12T17:00:20.472Z,20.47
2018-04-12T17:01:20.472Z,20.51
2018-04-12T17:02:20.456Z,20.41
2018-04-12T17:03:20.498Z,20.53
2018-04-12T17:04:20.447Z,20.43
2018-04-12T17:05:20.437Z,20.35
2018-04-12T17:06:20.459Z,20.38
2018-04-12T17:07:20.425Z,20.30
2018-04-12T17:08:20.440Z,20.27
2018-04-12T17:09:20.409Z,20.20
2018-04-12T17:10:20.405Z,20.06
2018-04-12T17:11:20.409Z,20.05
2018-04-12T17:12:20.383Z,19.95
2018-04-12T17:13:20.373Z,19.97
2018-04-12T17:14:20.400Z,19.84
2018-04-12T17:15:20.362Z,19.78
2018-04-12T17:16:20.359Z,19.63
2018-04-12T17:17:20.343Z,19.51
2018-04-12T17:18:20.332Z,19.39
2018-04-12T17:19:20.327Z,19.31
2018-04-12T17:20:20.317Z,19.21
2018-04-12T17:21:20.331Z,19.11
2018-04-12T17:22:20.301Z,18.97
2018-04-12T17:23:20.311Z,18.74
2018-04-12T17:24:20.301Z,18.68
2018-04-12T17:25:20.291Z,18.55
2018-04-12T17:26:20.282Z,18.49
2018-04-12T17:27:20.264Z,18.57
2018-04-12T17:28:20.248Z,18.49
2018-04-12T17:29:20.248Z,18.58
2018-04-12T17:30:20.250Z,18.52
2018-04-12T17:31:20.228Z,18.57
2018-04-12T17:32:20.222Z,18.58
2018-04-12T17:33:20.218Z,18.58
2018-04-12T17:34:20.198Z,18.50
2018-04-12T17:35:20.190Z,18.52
2018-04-12T17:36:20.180Z,18.42
2018-04-12T17:37:20.196Z,18.43
2018-04-12T17:38:20.160Z,18.44
2018-04-12T17:39:20.172Z,18.36
2018-04-12T17:40:20.142Z,18.34
2018-04-12T17:41:20.137Z,18.24
2018-04-12T17:42:20.149Z,18.22
2018-04-12T17:43:20.136Z,18.29
2018-04-12T17:44:20.131Z,18.31
2018-04-12T17:45:20.130Z,18.37
2018-04-12T17:46:20.086Z,18.34
2018-04-12T17:47:20.076Z,18.24
2018-04-12T17:48:20.069Z,18.25
2018-04-12T17:49:20.066Z,18.02
2018-04-12T17:50:20.060Z,18.00
2018-04-12T17:51:20.041Z,17.89
2018-04-12T17:52:20.031Z,17.84
2018-04-12T17:53:20.032Z,17.78
2018-04-12T17:54:20.026Z,17.67
2018-04-12T17:55:20.118Z,17.53
2018-04-12T17:56:19.996Z,17.54
2018-04-12T17:57:19.986Z,17.43
2018-04-12T17:58:19.979Z,17.43
2018-04-12T17:59:19.965Z,17.43
2018-04-12T18:00:19.967Z,17.36
2018-04-12T18:01:19.939Z,17.33
2018-04-12T18:02:19.930Z,17.13
2018-04-12T18:03:19.923Z,17.15
2018-04-12T18:04:19.913Z,17.08
2018-04-12T18:05:19.910Z,17.07
2018-04-12T18:06:19.894Z,16.93
2018-04-12T18:07:19.877Z,16.83
2018-04-12T18:08:19.877Z,16.77
2018-04-12T18:09:19.869Z,16.74
2018-04-12T18:10:19.858Z,16.68
2018-04-12T18:11:19.842Z,16.77
2018-04-12T18:12:19.828Z,16.73
2018-04-12T18:13:19.835Z,16.68
2018-04-12T18:14:19.830Z,16.63
2018-04-12T18:15:19.798Z,16.59
2018-04-12T18:16:19.788Z,16.53
2018-04-12T18:17:19.797Z,16.42
2018-04-12T18:18:27.609Z,16.40
2018-04-12T18:19:20.002Z,16.34
2018-04-12T18:20:20.031Z,16.26
2018-04-12T18:21:19.817Z,16.16
2018-04-12T18:22:19.737Z,16.15
2018-04-12T18:23:19.734Z,16.15
2018-04-12T18:24:19.724Z,16.12
2018-04-12T18:25:19.722Z,16.04
2018-04-12T18:26:19.734Z,16.00
2018-04-12T18:27:19.696Z,15.92
2018-04-12T18:28:19.938Z,15.92
2018-04-12T18:29:19.897Z,15.84
2018-04-12T18:30:19.646Z,15.89
2018-04-12T18:31:19.623Z,15.96
2018-04-12T18:32:19.616Z,15.85
2018-04-12T18:33:19.609Z,15.82
2018-04-12T18:34:19.590Z,15.67
2018-04-12T18:35:19.580Z,15.75
2018-04-12T18:36:19.568Z,15.74
2018-04-12T18:37:19.584Z,15.68
2018-04-12T18:38:19.552Z,15.60
2018-04-12T18:39:19.564Z,15.72
2018-04-12T18:40:19.537Z,15.61
2018-04-12T18:41:19.515Z,15.56
2018-04-12T18:42:19.502Z,15.54
2018-04-12T18:43:19.486Z,15.49
2018-04-12T18:44:19.486Z,15.41
2018-04-12T18:45:19.467Z,15.30
2018-04-12T18:46:19.466Z,15.26
2018-04-12T18:47:19.444Z,15.38
2018-04-12T18:48:19.428Z,15.31
2018-04-12T18:49:19.431Z,15.27
2018-04-12T18:50:19.403Z,15.31
2018-04-12T18:51:19.402Z,15.30
2018-04-12T18:52:19.384Z,15.26
2018-04-12T18:53:19.420Z,15.15
2018-04-12T18:54:19.355Z,14.99
2018-04-12T18:55:19.359Z,14.93
2018-04-12T18:56:19.340Z,14.83
2018-04-12T18:57:19.330Z,14.84
2018-04-12T18:58:19.317Z,14.83
2018-04-12T18:59:19.303Z,14.87
2018-04-12T19:00:19.298Z,14.91
2018-04-12T19:01:19.278Z,15.06
2018-04-12T19:02:19.272Z,15.03
2018-04-12T19:03:19.262Z,15.02
2018-04-12T19:04:19.246Z,14.95
2018-04-12T19:05:19.231Z,15.05
2018-04-12T19:06:19.268Z,14.87
2018-04-12T19:07:19.202Z,14.95
2018-04-12T19:08:19.199Z,14.86
2018-04-12T19:09:19.189Z,14.94
2018-04-12T19:10:19.174Z,14.88
2018-04-12T19:11:19.170Z,14.87
2018-04-12T19:12:19.158Z,14.78
2018-04-12T19:13:19.137Z,14.67
2018-04-12T19:14:19.148Z,14.67
2018-04-12T19:15:19.112Z,14.62
2018-04-12T19:16:19.099Z,14.60
2018-04-12T19:17:19.076Z,14.52
2018-04-12T19:18:19.077Z,14.49
2018-04-12T19:19:19.055Z,14.53
2018-04-12T19:20:19.065Z,14.57
2018-04-12T19:21:19.064Z,14.53
2018-04-12T19:22:19.025Z,14.43
2018-04-12T19:23:19.012Z,14.44
2018-04-12T19:24:19.000Z,14.35
2018-04-12T19:25:18.987Z,14.28
2018-04-12T19:26:18.977Z,14.13
2018-04-12T19:27:18.974Z,14.20
2018-04-12T19:28:27.891Z,14.14
2018-04-12T19:30:12.608Z,14.21
2018-04-12T19:31:12.553Z,14.16
2018-04-12T19:32:12.615Z,14.12
2018-04-12T19:33:12.553Z,14.10
2018-04-12T19:34:12.302Z,14.10
2018-04-12T19:35:12.287Z,14.10
2018-04-12T19:36:12.251Z,14.19
2018-04-12T19:37:12.248Z,14.19
2018-04-12T19:38:12.502Z,14.14
2018-04-12T19:39:12.496Z,14.13
2018-04-12T19:40:12.499Z,14.16
2018-04-12T19:41:12.212Z,14.14
2018-04-12T19:42:12.474Z,14.13
2018-04-12T19:43:12.394Z,14.06
2018-04-12T19:44:12.400Z,14.09
2018-04-12T19:45:12.449Z,14.12
2018-04-12T19:46:12.341Z,14.04
2018-04-12T19:47:12.357Z,14.01
2018-04-12T19:48:12.308Z,13.96
2018-04-12T19:49:12.353Z,13.79
2018-04-12T19:50:12.280Z,13.81
2018-04-12T19:51:12.344Z,13.65
2018-04-12T19:52:12.314Z,13.71
2018-04-12T19:53:12.271Z,13.71
2018-04-12T19:54:12.003Z,13.61
2018-04-12T19:55:11.976Z,13.52
2018-04-12T19:56:11.980Z,13.56
2018-04-12T19:57:11.953Z,13.55
2018-04-12T19:58:11.954Z,13.52
2018-04-12T19:59:11.946Z,13.56
2018-04-12T20:00:11.940Z,13.67
2018-04-12T20:01:11.912Z,13.65
2018-04-12T20:02:11.909Z,13.59
2018-04-12T20:03:11.883Z,13.54
2018-04-12T20:04:11.879Z,13.54
2018-04-12T20:05:11.857Z,13.47
2018-04-12T20:06:11.847Z,13.43
2018-04-12T20:07:11.828Z,13.37
2018-04-12T20:08:11.841Z,13.43
2018-04-12T20:09:11.803Z,13.43
2018-04-12T20:10:11.787Z,13.32
2018-04-12T20:11:11.784Z,13.22
2018-04-12T20:12:11.761Z,13.07
2018-04-12T20:13:11.758Z,13.03
2018-04-12T20:14:11.734Z,13.04
2018-04-12T20:15:21.189Z,13.20
2018-04-12T20:17:05.394Z,13.22
2018-04-12T20:18:05.321Z,13.18
2018-04-12T20:19:05.381Z,13.02
2018-04-12T20:20:05.318Z,13.03
2018-04-12T20:21:05.060Z,13.07
2018-04-12T20:22:05.037Z,13.04
2018-04-12T20:23:04.996Z,13.09
2018-04-12T20:24:05.003Z,13.06
2018-04-12T20:25:04.996Z,13.06
2018-04-12T20:26:05.224Z,13.07
2018-04-12T20:27:14.492Z,13.07
2018-04-12T20:28:58.610Z,12.89
2018-04-12T20:29:58.317Z,12.88
2018-04-12T20:30:58.635Z,12.95
2018-04-12T20:31:58.580Z,12.95
2018-04-12T20:32:58.501Z,12.95
2018-04-12T20:33:58.588Z,12.82
2018-04-12T20:34:58.482Z,12.89
2018-04-12T20:35:58.517Z,12.87
2018-04-12T20:36:58.514Z,12.89
2018-04-12T20:37:58.469Z,12.87
2018-04-12T20:38:58.510Z,12.82
2018-04-12T20:39:58.262Z,12.88
2018-04-12T20:40:58.157Z,12.85
2018-04-12T20:41:58.199Z,12.82
2018-04-12T20:42:58.175Z,12.85
2018-04-12T20:43:58.752Z,12.75
2018-04-12T20:44:58.095Z,12.63
2018-04-12T20:45:58.099Z,12.56
2018-04-12T20:46:58.066Z,12.51
2018-04-12T20:47:58.069Z,12.56
2018-04-12T20:48:58.066Z,12.54
2018-04-12T20:49:58.014Z,12.62
2018-04-12T20:50:58.013Z,12.54
2018-04-12T20:51:57.993Z,12.54
2018-04-12T20:52:57.986Z,12.44
2018-04-12T20:53:57.999Z,12.44
2018-04-12T20:54:58.112Z,12.48
2018-04-12T20:55:58.182Z,12.44
2018-04-12T20:56:57.989Z,12.38
2018-04-12T20:57:58.213Z,12.49
2018-04-12T20:58:58.048Z,12.39
2018-04-12T20:59:58.100Z,12.26
2018-04-12T21:00:58.097Z,12.26
2018-04-12T21:01:57.924Z,12.24
2018-04-12T21:02:57.934Z,12.24
2018-04-12T21:03:57.991Z,12.09
2018-04-12T21:04:57.991Z,12.11
2018-04-12T21:05:58.032Z,12.23
2018-04-12T21:06:58.069Z,12.23
2018-04-12T21:07:57.835Z,12.20
2018-04-12T21:08:57.813Z,12.08
2018-04-12T21:09:57.914Z,12.13
2018-04-12T21:10:57.867Z,12.20
2018-04-12T21:11:57.831Z,12.15
2018-04-12T21:12:57.776Z,12.19
2018-04-12T21:13:57.752Z,12.12
2018-04-12T21:14:57.738Z,12.20
2018-04-12T21:15:57.755Z,12.15
2018-04-12T21:16:57.780Z,12.11
2018-04-12T21:17:57.800Z,12.05
2018-04-12T21:18:57.780Z,11.99
2018-04-12T21:19:57.773Z,12.02
2018-04-12T21:20:57.735Z,11.97
2018-04-12T21:21:57.639Z,11.99
2018-04-12T21:22:57.710Z,12.01
2018-04-12T21:23:58.199Z,11.90
2018-04-12T21:24:57.714Z,11.94
2018-04-12T21:25:57.811Z,11.83
2018-04-12T21:26:57.666Z,11.77
2018-04-12T21:27:57.608Z,11.82
2018-04-12T21:28:57.653Z,11.83
2018-04-12T21:29:57.543Z,11.74
2018-04-12T21:30:57.543Z,11.72
2018-04-12T21:31:57.468Z,11.70
2018-04-12T21:32:57.573Z,11.77
2018-04-12T21:33:57.874Z,11.72
2018-04-12T21:34:57.673Z,11.83
2018-04-12T21:35:57.588Z,11.80
2018-04-12T21:36:57.537Z,11.75
2018-04-12T21:37:57.409Z,11.77
2018-04-12T21:38:57.492Z,11.71
2018-04-12T21:39:57.571Z,11.72
2018-04-12T21:40:57.476Z,11.65
2018-04-12T21:41:57.402Z,11.83
2018-04-12T21:42:57.356Z,11.83
2018-04-12T21:43:57.372Z,11.93
2018-04-12T21:44:57.293Z,11.97
2018-04-12T21:45:57.404Z,11.89
2018-04-12T21:46:57.409Z,11.86
2018-04-12T21:47:57.300Z,11.86
2018-04-12T21:48:57.270Z,11.74
2018-04-12T21:49:57.312Z,11.74
2018-04-12T21:50:57.238Z,11.70
2018-04-12T21:51:57.208Z,11.70
2018-04-12T21:52:57.181Z,11.75
2018-04-12T21:53:57.216Z,11.75
2018-04-12T21:54:57.344Z,11.72
2018-04-12T21:55:57.217Z,11.71
2018-04-12T21:56:57.124Z,11.78
2018-04-12T21:58:07.241Z,11.72
2018-04-12T21:59:51.873Z,11.80
2018-04-12T22:00:52.368Z,11.83
2018-04-12T22:01:53.406Z,11.87
2018-04-12T22:02:52.419Z,11.77
2018-04-12T22:03:51.844Z,11.70
2018-04-12T22:04:52.371Z,11.68
2018-04-12T22:05:51.733Z,11.65
2018-04-12T22:06:51.681Z,11.75
2018-04-12T22:07:51.588Z,11.80
2018-04-12T22:08:51.516Z,11.77
2018-04-12T22:09:51.423Z,11.80
2018-04-12T22:10:51.421Z,11.86
2018-04-12T22:11:51.323Z,11.83
2018-04-12T22:12:51.366Z,11.83
2018-04-12T22:13:51.423Z,11.82
2018-04-12T22:14:51.308Z,11.82
2018-04-12T22:15:51.281Z,11.82
2018-04-12T22:16:51.302Z,11.74
2018-04-12T22:17:51.433Z,11.68
2018-04-12T22:18:51.351Z,11.78
2018-04-12T22:19:51.472Z,11.71
2018-04-12T22:20:51.306Z,11.59
2018-04-12T22:21:51.251Z,11.57
2018-04-12T22:22:51.170Z,11.41
2018-04-12T22:23:51.123Z,11.41
2018-04-12T22:24:51.166Z,11.31
2018-04-12T22:25:51.116Z,11.27
2018-04-12T22:26:51.109Z,11.35
2018-04-12T22:27:51.245Z,11.31
2018-04-12T22:28:51.036Z,11.31
2018-04-12T22:29:51.024Z,11.28
2018-04-12T22:30:51.031Z,11.27
2018-04-12T22:31:50.989Z,11.21
2018-04-12T22:32:50.956Z,11.20
2018-04-12T22:33:51.040Z,11.25
2018-04-12T22:34:50.992Z,11.34
2018-04-12T22:35:50.976Z,11.29
2018-04-12T22:36:51.014Z,11.25
2018-04-12T22:37:50.986Z,11.20
2018-04-12T22:38:50.967Z,11.21
2018-04-12T22:39:50.906Z,11.21
2018-04-12T22:40:50.945Z,11.10
2018-04-12T22:41:50.888Z,11.06
2018-04-12T22:42:50.892Z,11.03
2018-04-12T22:43:50.775Z,10.94
2018-04-12T22:44:50.932Z,10.95
2018-04-12T22:45:50.830Z,10.95
2018-04-12T22:46:50.839Z,11.07
2018-04-12T22:47:50.794Z,11.11
2018-04-12T22:48:50.754Z,11.14
2018-04-12T22:49:50.745Z,11.14
2018-04-12T22:50:50.762Z,11.10
2018-04-12T22:51:50.788Z,11.13
2018-04-12T22:52:50.766Z,11.11
2018-04-12T22:53:50.722Z,11.13
2018-04-12T22:54:50.633Z,11.11
2018-04-12T22:55:50.655Z,11.20
2018-04-12T22:56:50.639Z,11.17
2018-04-12T22:57:50.701Z,11.10
2018-04-12T22:58:50.651Z,11.11
2018-04-12T22:59:50.677Z,11.10
2018-04-12T23:00:50.609Z,11.09
2018-04-12T23:01:50.945Z,11.02
2018-04-12T23:02:50.561Z,10.99
2018-04-12T23:03:51.271Z,10.99
2018-04-12T23:04:50.766Z,10.95
2018-04-12T23:05:50.526Z,11.06
2018-04-12T23:06:50.642Z,10.83
2018-04-12T23:07:50.503Z,10.83
2018-04-12T23:08:50.461Z,10.83
2018-04-12T23:09:50.451Z,10.77
2018-04-12T23:10:50.386Z,10.81
2018-04-12T23:11:50.459Z,10.80
2018-04-12T23:12:50.598Z,10.77
2018-04-12T23:13:50.384Z,10.83
2018-04-12T23:14:50.401Z,10.76
2018-04-12T23:15:50.315Z,10.65
2018-04-12T23:16:50.338Z,10.68
2018-04-12T23:17:50.283Z,10.68
2018-04-12T23:18:50.296Z,10.66
2018-04-12T23:19:50.303Z,10.71
2018-04-12T23:20:50.230Z,10.53
2018-04-12T23:21:50.274Z,10.66
2018-04-12T23:22:50.361Z,10.65
2018-04-12T23:23:50.226Z,10.70
2018-04-12T23:24:50.271Z,10.78
2018-04-12T23:25:50.276Z,10.71
2018-04-12T23:26:50.258Z,10.77
2018-04-12T23:27:50.185Z,10.70
2018-04-12T23:28:50.255Z,10.60
2018-04-12T23:29:50.076Z,10.53
2018-04-12T23:30:50.490Z,10.56
2018-04-12T23:31:50.026Z,10.55
2018-04-12T23:32:50.041Z,10.55
2018-04-12T23:33:49.997Z,10.58
2018-04-12T23:34:50.003Z,10.55
2018-04-12T23:35:49.974Z,10.63
2018-04-12T23:36:49.945Z,10.65
2018-04-12T23:37:50.116Z,10.62
2018-04-12T23:38:49.923Z,10.55
2018-04-12T23:39:49.916Z,10.56
2018-04-12T23:40:49.893Z,10.56
2018-04-12T23:41:49.887Z,10.43
2018-04-12T23:42:49.858Z,10.43
2018-04-12T23:43:49.839Z,10.43
2018-04-12T23:44:49.823Z,10.36
2018-04-12T23:45:49.837Z,10.25
2018-04-12T23:46:49.808Z,10.32
2018-04-12T23:47:49.788Z,10.24
2018-04-12T23:48:49.766Z,10.22
2018-04-12T23:49:49.769Z,10.33
2018-04-12T23:50:49.737Z,10.34
2018-04-12T23:51:49.714Z,10.30
2018-04-12T23:52:49.705Z,10.36
2018-04-12T23:53:49.685Z,10.30
2018-04-12T23:54:49.666Z,10.26
2018-04-12T23:55:49.663Z,10.24
2018-04-12T23:56:49.637Z,10.18
2018-04-12T23:57:49.634Z,10.32
2018-04-12T23:58:49.616Z,10.26
2018-04-12T23:59:49.587Z,10.24
